Terminal Aerodrome Forecast
Issued by NWS

Home | Current Version | Previous Version | Text Only | Print | Product List | Glossary On
Versions: 1 2 3 4 5 6 7 8 9 10 11 12
000
FTUS42 KGSP 032320
TAFAND
TAF
KAND 032320Z 0400/0424 21008KT P6SM FEW070
     FM040300 17003KT P6SM SCT070
     FM040800 16003KT P6SM FEW070 SCT200
     FM041400 20003KT P6SM FEW070 SCT200
     FM041900 21006KT P6SM SCT070=

USA.gov is the U.S. government's official web portal to all federal, state and local government web resources and services.